Record high temperature 34.4°C Record low temperature -24.9°C Record high gust 32.4 kts Record high average 15.7 kts Record daily rain 0.0 mm Record low windchill -28.7°C Record high barometer 1042.1 hPa Record low barometer 947.2 hPa
Daily high pressure 999.8 hPa Daily low pressure 986.9 hPa Daily low windchill -5.2°C Daily high heat index -0.8°C Daily high gust speed 5.0 kts WSW Daily high average speed 2.0 kts W
ESUI Väder
LAST READING AT TIME: 10:35 AM DATE: October 23 2021, time of next update: 10:40 am
Current WeatherDry Current Temperature -3.0°C (26.6°F), Apparent temp -5.5°C
Maximum Temperature (since midnight)-0.8°C at: 12:00 AM Minimum Temperature (since midnight)-4.4°C at: 8:15 AM
Average windspeed (ten minute)2.0 kts (3.7 kmh) Wind Direction (ten minute)N (360°)
Windchill Temperature -4.2°C Maximum Gust (last hour)5.0 kts (9.3 kmh) at: 9:32
Maximum Gust (since midnight)5.0 kts (9.3 kmh) at: 9:18 AM Maximum 1 minute average (since midnight)2.0 kts (3.7 kmh) at: 12:00 AM
Rainfall (last hour)0.0 mm Rainfall (since midnight)0.0 mm (0.00 in.)---
Rainfall This month 0.0 mm (0.00 in.) Rainfall To date this year 0.0 mm (0.00 in.)
Maximum rain per minute (last hour)0.0 mm/min Maximum rain per hour (last 6 hours)0.0 mm/hour
Yesterdays rainfall 0.0 mm DewPoint -3.5°C (Wet Bulb :-3.2°C )
Humidity 96 %, Humidex -5.9°C Barometer corrected to msl999.8 hPa
Pressure change +0.9 hPa (last hour) Trend (last hour)RISING SLOWLY
Pressure change (last 12 hours)+15.3 hPa Pressure change (last 6 hours)+6.4 hPa
Current Indoor Temp. 17.2°C
Current Indoor Hum. 36%



Weather report/warning/Metars

Ornskoldsvik Airport, Sweden (ESNO) 63-24N 018-58E
Oct 23, 2021 - 04:20 AM EDT / 2021.10.23 0820 UTC
Wind: from the NW (320 degrees) at 9 MPH (8 KT):0
Visibility: greater than 7 mile(s):0
Temperature: 26 F (-3 C)
Windchill: 17 F (-8 C):1
Dew Point: 23 F (-5 C)
Relative Humidity: 86%
Pressure (altimeter): 29.83 in. Hg (1010 hPa)
ob: ESNO 230820Z 32008KT CAVOK M03/M05 Q1010
cycle: 8
Kramfors Flygplats, Sweden (ESNK) 63-03N 017-46E 19M
Oct 23, 2021 - 04:20 AM EDT / 2021.10.23 0820 UTC
Wind: from the NNW (330 degrees) at 10 MPH (9 KT):0
Visibility: greater than 7 mile(s):0
Temperature: 30 F (-1 C)
Windchill: 21 F (-6 C):1
Dew Point: 21 F (-6 C)
Relative Humidity: 68%
Pressure (altimeter): 29.88 in. Hg (1012 hPa)
ob: ESNK 230820Z AUTO 33009KT 9999 NCD M01/M06 Q1012
cycle: 8
Umea Flygplats, Sweden (ESNU) 63-48N 020-17E 14M
Oct 23, 2021 - 04:20 AM EDT / 2021.10.23 0820 UTC
Wind: from the NNW (330 degrees) at 13 MPH (11 KT):0
Visibility: greater than 7 mile(s):0
Temperature: 28 F (-2 C)
Windchill: 17 F (-8 C):1
Dew Point: 24 F (-4 C)
Relative Humidity: 86%
Pressure (altimeter): 29.83 in. Hg (1010 hPa)
ob: ESNU 230820Z 33011KT CAVOK M02/M04 Q1010
cycle: 8
Skelleftea Airport, Sweden (ESNS) 64-38N 021-05E
Oct 23, 2021 - 04:20 AM EDT / 2021.10.23 0820 UTC
Wind: from the NW (320 degrees) at 8 MPH (7 KT):0
Visibility: greater than 7 mile(s):0
Temperature: 26 F (-3 C)
Windchill: 17 F (-8 C):1
Dew Point: 23 F (-5 C)
Relative Humidity: 86%
Pressure (altimeter): 29.83 in. Hg (1010 hPa)
ob: ESNS 230820Z 32007KT CAVOK M03/M05 Q1010
cycle: 8



The data is logged at two minute intervals, but there is data recorded every minute.

Use the RELOAD facility on your browser to retrieve the latest data.

Click here for a daily update of the averages/extremes to date for the month
Created by "Weather Display" software version 10.37S at this start time/date 10:01:35 2021-10-23